CDT,Max TemperatureF,Mean TemperatureF,Min TemperatureF,Max Dew PointF,MeanDew PointF,Min DewpointF,Max Humidity, Mean Humidity, Min Humidity, Max Sea Level PressureIn, Mean Sea Level PressureIn, Min Sea Level PressureIn, Max VisibilityMiles, Mean VisibilityMiles, Min VisibilityMiles, Max Wind SpeedMPH, Mean Wind SpeedMPH, Max Gust SpeedMPH,PrecipitationIn, CloudCover, Events, WindDirDegrees
2012-10-1,64,56,48,50,46,43,82,63,49,29.93,29.88,29.83,20,16,15,12,6,,0.00,8,,43
2012-10-2,68,64,60,57,50,46,77,60,49,29.90,29.86,29.82,20,19,15,14,10,28,0.00,5,,31
2012-10-3,68,64,60,57,56,55,88,79,64,30.01,29.96,29.91,10,7,4,9,7,,0.00,8,,183
2012-10-4,80,68,55,55,53,48,82,62,37,30.10,30.05,29.99,15,12,10,17,10,34,0.00,5,Rain,227
2012-10-5,48,46,44,39,34,25,81,64,43,30.16,30.12,30.07,20,17,15,14,10,,0.00,7,Rain,251
2012-10-6,50,42,35,36,27,27,75,52,40,30.17,30.14,30.08,20,18,15,15,12,21,0.00,5,,281
2012-10-7,84,60,32,43,26,19,80,48,23,30.18,30.15,29.93,20,20,20,16,10,23,0.00,5,,253
2012-10-8,59,46,33,28,26,23,75,43,27,30.18,30.11,30.04,20,19,15,14,10,26,0.00,1,,184
2012-10-9,66,56,46,43,36,32,76,47,32,30.01,29.92,29.82,20,15,10,23,13,34,0.00,6,Rain,200
2012-10-10,53,44,35,37,29,23,87,56,33,30.19,30.11,29.96,20,19,15,23,15,37,0.00,2,,267
2012-10-11,66,52,39,45,32,30,70,46,26,30.20,30.13,30.07,20,19,15,21,12,32,0.00,2,,217
2012-10-12,53,44,35,34,31,28,87,53,38,30.44,30.38,30.33,20,20,20,16,11,29,0.00,2,,56
2012-10-13,68,56,48,63,48,28,94,74,46,30.15,30.00,29.85,10,8,4,14,11,23,0.00,8,Rain,184
2012-10-14,71,61,51,63,57,45,88,78,60,29.75,29.59,29.45,15,11,3,21,14,51,0.00,8,Rain,216
2012-10-15,55,48,42,43,40,37,87,70,54,29.97,29.93,29.83,15,15,15,12,10,,0.00,5,,316
2012-10-16,68,55,42,48,42,37,81,53,40,29.94,29.75,29.60,20,14,10,17,13,37,0.00,4,,158
2012-10-17,69,64,59,57,52,46,94,68,49,29.59,29.50,29.34,20,13,5,23,13,39,0.00,7,Rain,175
2012-10-18,55,50,46,43,39,32,82,68,41,29.57,29.47,29.37,15,12,10,17,9,34,0.00,7,Rain,209
2012-10-19,51,48,46,45,43,41,87,81,67,29.63,29.52,29.46,15,12,2,9,6,,0.00,8,Rain,241
2012-10-20,59,50,41,41,39,37,93,71,48,29.93,29.82,29.71,20,16,10,17,10,,0.00,4,,245
2012-10-21,69,54,39,48,44,37,93,65,43,30.07,30.01,29.97,20,17,15,14,6,,0.00,1,,148
2012-10-22,68,62,57,61,56,46,88,77,60,30.00,29.95,29.88,15,12,4,12,9,,0.00,7,Rain,163
2012-10-23,68,65,62,61,60,57,88,82,77,29.96,29.93,29.89,10,9,7,14,8,,0.00,7,Rain,184
2012-10-24,80,71,62,63,60,57,82,64,51,29.97,29.92,29.88,15,12,10,14,11,23,0.00,4,,182
2012-10-25,78,66,48,59,56,45,87,63,51,29.95,29.81,29.73,15,11,8,29,13,39,0.00,5,Rain,194
2012-10-26,48,44,41,32,30,28,65,54,46,30.37,30.29,30.20,20,18,10,17,13,30,0.00,5,,338
2012-10-27,48,45,42,36,32,28,66,59,53,30.29,30.26,30.24,20,18,15,17,13,26,0.00,6,,351
2012-10-28,48,46,44,36,31,28,66,53,46,30.27,30.24,30.23,20,20,20,17,15,34,0.00,6,Rain,23
2012-10-29,51,48,46,34,32,30,58,53,50,30.24,30.18,30.07,20,20,20,29,22,48,0.00,5,,360
2012-10-30,46,44,42,34,33,30,70,65,53,29.88,29.80,29.77,20,17,10,29,26,60,0.00,8,Rain,329
2012-10-31,46,42,37,34,29,27,66,60,46,29.85,29.82,29.78,20,19,10,17,11,29,0.00,7,,317